createdAt,value
2023-01-13T00:02:23.544Z,100.00
2023-01-13T00:05:26.834Z,100.00
2023-01-13T00:08:29.535Z,100.00
2023-01-13T00:11:32.469Z,100.00
2023-01-13T00:14:35.845Z,100.00
2023-01-13T00:17:39.199Z,100.00
2023-01-13T00:20:42.060Z,100.00
2023-01-13T00:23:45.181Z,100.00
2023-01-13T00:26:47.737Z,100.00
2023-01-13T00:29:50.970Z,100.00
2023-01-13T00:32:54.332Z,100.00
2023-01-13T00:35:57.792Z,100.00
2023-01-13T00:39:00.636Z,100.00
2023-01-13T00:42:22.413Z,100.00
2023-01-13T00:45:25.032Z,100.00
2023-01-13T00:48:28.818Z,100.00
2023-01-13T00:51:31.471Z,100.00
2023-01-13T00:54:34.310Z,100.00
2023-01-13T00:57:36.915Z,100.00
2023-01-13T01:00:39.753Z,100.00
2023-01-13T01:03:42.580Z,100.00
2023-01-13T01:06:45.517Z,100.00
2023-01-13T01:09:49.632Z,100.00
2023-01-13T01:12:52.663Z,100.00
2023-01-13T01:15:55.207Z,100.00
2023-01-13T01:18:58.359Z,100.00
2023-01-13T01:22:00.937Z,100.00
2023-01-13T01:25:03.956Z,100.00
2023-01-13T01:28:06.642Z,100.00
2023-01-13T01:31:15.140Z,100.00
2023-01-13T01:34:17.814Z,100.00
2023-01-13T01:37:20.727Z,100.00
2023-01-13T01:40:24.197Z,100.00
2023-01-13T01:44:04.120Z,100.00
2023-01-13T01:47:06.971Z,100.00
2023-01-13T01:50:10.495Z,100.00
2023-01-13T01:53:17.793Z,100.00
2023-01-13T01:56:21.123Z,100.00
2023-01-13T01:59:24.095Z,100.00
2023-01-13T02:02:28.935Z,100.00
2023-01-13T02:05:32.013Z,100.00
2023-01-13T02:08:36.764Z,100.00
2023-01-13T02:11:58.404Z,100.00
2023-01-13T02:15:04.913Z,100.00
2023-01-13T02:18:42.931Z,100.00
2023-01-13T02:22:23.681Z,100.00
2023-01-13T02:25:38.599Z,100.00
2023-01-13T02:29:38.022Z,100.00
2023-01-13T02:32:50.129Z,100.00
2023-01-13T02:35:55.663Z,100.00
2023-01-13T02:39:05.026Z,100.00
2023-01-13T02:42:33.111Z,100.00
2023-01-13T02:45:40.089Z,100.00
2023-01-13T02:48:44.867Z,100.00
2023-01-13T02:51:48.784Z,100.00
2023-01-13T02:54:55.433Z,100.00
2023-01-13T02:58:00.159Z,100.00
2023-01-13T03:01:03.246Z,100.00
2023-01-13T03:04:14.216Z,100.00
2023-01-13T03:07:35.107Z,100.00
2023-01-13T03:10:50.118Z,100.00
2023-01-13T03:14:14.739Z,100.00
2023-01-13T03:17:17.912Z,100.00
2023-01-13T03:20:28.720Z,100.00
2023-01-13T03:23:33.222Z,100.00
2023-01-13T03:26:41.099Z,100.00
2023-01-13T03:29:56.570Z,100.00
2023-01-13T03:33:05.561Z,100.00
2023-01-13T03:36:10.811Z,100.00
2023-01-13T03:39:17.325Z,100.00
2023-01-13T03:42:23.850Z,100.00
2023-01-13T03:45:26.884Z,100.00
2023-01-13T03:48:31.408Z,100.00
2023-01-13T03:51:35.135Z,100.00
2023-01-13T03:54:46.920Z,100.00
2023-01-13T03:57:59.883Z,100.00
2023-01-13T04:01:13.266Z,100.00
2023-01-13T04:04:20.808Z,100.00
2023-01-13T04:07:38.509Z,100.00
2023-01-13T04:10:48.875Z,100.00
2023-01-13T04:13:53.347Z,100.00
2023-01-13T04:16:56.781Z,100.00
2023-01-13T04:19:59.425Z,100.00
2023-01-13T04:23:02.439Z,100.00
2023-01-13T04:26:05.046Z,100.00
2023-01-13T04:29:08.415Z,100.00
2023-01-13T04:32:11.267Z,100.00
2023-01-13T04:35:14.209Z,100.00
2023-01-13T04:38:18.850Z,100.00
2023-01-13T04:41:21.738Z,100.00
2023-01-13T04:44:24.369Z,100.00
2023-01-13T04:47:27.287Z,100.00
2023-01-13T04:50:30.486Z,100.00
2023-01-13T04:53:33.269Z,100.00
2023-01-13T04:56:35.925Z,100.00
2023-01-13T04:59:38.993Z,100.00
2023-01-13T05:02:41.744Z,100.00
2023-01-13T05:05:44.809Z,100.00
2023-01-13T05:08:47.395Z,100.00
2023-01-13T05:12:08.882Z,100.00
2023-01-13T05:15:33.502Z,100.00
2023-01-13T05:18:36.771Z,100.00
2023-01-13T05:21:58.434Z,100.00
2023-01-13T05:25:20.184Z,100.00
2023-01-13T05:28:24.347Z,100.00
2023-01-13T05:31:27.234Z,100.00
2023-01-13T05:34:29.864Z,100.00
2023-01-13T05:37:33.093Z,100.00
2023-01-13T05:40:57.780Z,100.00
2023-01-13T05:44:01.972Z,100.00
2023-01-13T05:47:04.599Z,100.00
2023-01-13T05:50:08.053Z,100.00
2023-01-13T05:53:11.007Z,100.00
2023-01-13T05:56:13.931Z,100.00
2023-01-13T05:59:16.663Z,100.00
2023-01-13T06:02:19.595Z,100.00
2023-01-13T06:05:22.813Z,100.00
2023-01-13T06:08:25.911Z,100.00
2023-01-13T06:11:29.145Z,100.00
2023-01-13T06:14:41.196Z,100.00
2023-01-13T06:17:44.380Z,100.00
2023-01-13T06:20:48.050Z,100.00
2023-01-13T06:23:51.080Z,100.00
2023-01-13T06:26:53.697Z,100.00
2023-01-13T06:29:57.253Z,100.00
2023-01-13T06:33:02.242Z,100.00
2023-01-13T06:36:11.224Z,100.00
2023-01-13T06:39:20.437Z,100.00
2023-01-13T06:42:42.604Z,100.00
2023-01-13T06:45:55.958Z,100.00
2023-01-13T06:48:59.264Z,100.00
2023-01-13T06:52:02.120Z,100.00
2023-01-13T06:55:05.741Z,100.00
2023-01-13T06:58:08.523Z,100.00
2023-01-13T07:01:11.921Z,100.00
2023-01-13T07:04:14.786Z,100.00
2023-01-13T07:07:17.763Z,100.00
2023-01-13T07:10:22.564Z,100.00
2023-01-13T07:13:44.359Z,100.00
2023-01-13T07:16:47.185Z,100.00
2023-01-13T07:19:50.630Z,100.00
2023-01-13T07:22:55.000Z,100.00
2023-01-13T07:25:58.495Z,100.00
2023-01-13T07:29:01.452Z,100.00
2023-01-13T07:32:05.708Z,100.00
2023-01-13T07:35:08.412Z,100.00
2023-01-13T07:41:34.394Z,100.00
2023-01-13T07:44:37.883Z,100.00
2023-01-13T07:47:40.951Z,100.00
2023-01-13T07:50:44.345Z,100.00
2023-01-13T07:53:46.984Z,100.00
2023-01-13T07:56:50.007Z,100.00
2023-01-13T07:59:52.803Z,100.00
2023-01-13T08:02:56.063Z,100.00
2023-01-13T08:06:01.583Z,100.00
2023-01-13T08:12:28.109Z,100.00
2023-01-13T08:15:34.985Z,100.00
2023-01-13T08:18:38.893Z,100.00
2023-01-13T08:21:41.599Z,100.00
2023-01-13T08:24:44.569Z,100.00
2023-01-13T08:27:49.707Z,100.00
2023-01-13T08:30:54.279Z,100.00
2023-01-13T08:33:56.925Z,100.00
2023-01-13T08:36:59.794Z,100.00
2023-01-13T08:40:05.360Z,100.00
2023-01-13T08:43:09.843Z,100.00
2023-01-13T08:46:14.974Z,100.00
2023-01-13T08:49:19.321Z,100.00
2023-01-13T08:52:22.630Z,100.00
2023-01-13T08:55:25.849Z,100.00
2023-01-13T08:58:30.214Z,100.00
2023-01-13T09:01:34.176Z,100.00
2023-01-13T09:04:37.069Z,100.00
2023-01-13T09:07:40.003Z,100.00
2023-01-13T09:10:42.778Z,100.00
2023-01-13T09:13:45.708Z,100.00
2023-01-13T09:16:48.429Z,100.00
2023-01-13T09:19:51.486Z,100.00
2023-01-13T09:22:54.182Z,100.00
2023-01-13T09:25:57.272Z,100.00
2023-01-13T09:29:01.687Z,100.00
2023-01-13T09:32:05.358Z,100.00
2023-01-13T09:35:09.767Z,100.00
2023-01-13T09:38:12.739Z,100.00
2023-01-13T09:41:46.269Z,100.00
2023-01-13T09:44:55.450Z,100.00
2023-01-13T09:48:16.400Z,100.00
2023-01-13T09:51:27.412Z,100.00
2023-01-13T09:54:45.669Z,100.00
2023-01-13T09:57:48.839Z,100.00
2023-01-13T10:01:06.894Z,100.00
2023-01-13T10:04:15.010Z,100.00
2023-01-13T10:07:18.298Z,100.00
2023-01-13T10:10:46.511Z,100.00
2023-01-13T10:13:59.766Z,100.00
2023-01-13T10:17:28.669Z,100.00
2023-01-13T10:21:02.851Z,100.00
2023-01-13T10:24:15.592Z,100.00
2023-01-13T10:27:35.335Z,99.71
2023-01-13T10:30:46.423Z,99.68
2023-01-13T10:33:49.725Z,98.54
2023-01-13T10:36:59.504Z,97.12
2023-01-13T10:40:07.300Z,98.87
2023-01-13T10:43:12.278Z,98.87
2023-01-13T10:46:16.468Z,99.23
2023-01-13T10:49:28.138Z,97.85
2023-01-13T10:52:33.456Z,97.84
2023-01-13T10:56:16.585Z,98.10
2023-01-13T10:59:19.957Z,98.31
2023-01-13T11:02:29.432Z,98.28
2023-01-13T11:05:32.525Z,97.75
2023-01-13T11:08:42.990Z,96.17
2023-01-13T11:11:47.526Z,96.08
2023-01-13T11:14:51.451Z,96.52
2023-01-13T11:18:25.740Z,95.50
2023-01-13T11:21:35.297Z,93.79
2023-01-13T11:25:30.575Z,94.67
2023-01-13T11:28:41.431Z,94.51
2023-01-13T11:31:49.671Z,92.74
2023-01-13T11:34:57.461Z,92.41
2023-01-13T11:38:07.433Z,93.42
2023-01-13T11:41:39.095Z,92.78
2023-01-13T11:44:46.784Z,93.03
2023-01-13T11:47:51.908Z,91.58
2023-01-13T11:51:01.095Z,93.64
2023-01-13T11:54:15.101Z,92.41
2023-01-13T11:57:43.194Z,91.87
2023-01-13T12:01:07.258Z,91.93
2023-01-13T12:04:21.652Z,92.79
2023-01-13T12:07:55.592Z,94.10
2023-01-13T12:11:05.485Z,93.81
2023-01-13T12:14:18.290Z,94.45
2023-01-13T12:17:38.648Z,94.61
2023-01-13T12:21:01.053Z,94.39
2023-01-13T12:24:24.881Z,95.02
2023-01-13T12:27:49.266Z,94.71
2023-01-13T12:30:56.927Z,95.01
2023-01-13T12:34:27.677Z,95.77
2023-01-13T12:37:39.805Z,96.36
2023-01-13T12:41:01.611Z,96.76
2023-01-13T12:44:20.572Z,97.11
2023-01-13T12:47:43.631Z,97.56
2023-01-13T12:51:02.721Z,98.56
2023-01-13T12:54:37.889Z,98.25
2023-01-13T12:57:56.042Z,99.10
2023-01-13T13:01:01.604Z,98.60
2023-01-13T13:04:09.629Z,98.15
2023-01-13T13:07:18.909Z,97.58
2023-01-13T13:10:37.969Z,97.89
2023-01-13T13:13:45.472Z,97.63
2023-01-13T13:16:51.051Z,97.73
2023-01-13T13:19:56.034Z,97.85
2023-01-13T13:22:59.027Z,96.74
2023-01-13T13:26:05.804Z,96.07
2023-01-13T13:29:50.305Z,96.16
2023-01-13T13:33:22.016Z,96.79
2023-01-13T13:36:54.061Z,96.79
2023-01-13T13:40:14.963Z,97.08
2023-01-13T13:43:38.342Z,97.30
2023-01-13T13:46:49.250Z,96.60
2023-01-13T13:49:56.765Z,96.88
2023-01-13T13:53:05.343Z,96.66
2023-01-13T13:56:19.140Z,96.64
2023-01-13T13:59:24.118Z,96.30
2023-01-13T14:02:30.321Z,96.20
2023-01-13T14:05:35.167Z,96.08
2023-01-13T14:08:38.956Z,96.46
2023-01-13T14:11:41.962Z,96.13
2023-01-13T14:14:45.905Z,96.29
2023-01-13T14:17:48.819Z,96.99
2023-01-13T14:20:54.407Z,97.65
2023-01-13T14:24:10.733Z,97.98
2023-01-13T14:27:18.559Z,98.42
2023-01-13T14:30:26.273Z,98.39
2023-01-13T14:33:41.431Z,98.67
2023-01-13T14:36:47.895Z,99.03
2023-01-13T14:39:50.763Z,99.47
2023-01-13T14:43:14.898Z,99.75
2023-01-13T14:46:18.034Z,100.00
2023-01-13T14:49:46.918Z,100.00
2023-01-13T14:52:54.707Z,100.00
2023-01-13T14:55:58.760Z,100.00
2023-01-13T14:59:34.007Z,100.00
2023-01-13T15:02:41.540Z,100.00
2023-01-13T15:05:50.049Z,100.00
2023-01-13T15:08:53.091Z,100.00
2023-01-13T15:11:58.810Z,100.00
2023-01-13T15:15:23.636Z,100.00
2023-01-13T15:18:27.290Z,100.00
2023-01-13T15:21:31.196Z,100.00
2023-01-13T15:24:33.880Z,100.00
2023-01-13T15:27:38.462Z,100.00
2023-01-13T15:30:42.848Z,100.00
2023-01-13T15:33:45.802Z,100.00
2023-01-13T15:36:48.420Z,100.00
2023-01-13T15:39:51.483Z,100.00
2023-01-13T15:43:12.466Z,100.00
2023-01-13T15:46:36.748Z,100.00
2023-01-13T15:49:45.568Z,100.00
2023-01-13T15:52:48.360Z,100.00
2023-01-13T15:55:53.140Z,100.00
2023-01-13T15:58:56.086Z,100.00
2023-01-13T16:01:58.703Z,100.00
2023-01-13T16:05:01.998Z,100.00
2023-01-13T16:08:05.106Z,100.00
2023-01-13T16:11:10.650Z,100.00
2023-01-13T16:14:13.237Z,100.00
2023-01-13T16:17:21.803Z,100.00
2023-01-13T16:20:26.842Z,100.00
2023-01-13T16:23:29.736Z,100.00
2023-01-13T16:26:36.291Z,100.00
2023-01-13T16:29:39.443Z,100.00
2023-01-13T16:32:42.194Z,100.00
2023-01-13T16:36:10.554Z,100.00
2023-01-13T16:39:20.306Z,100.00
2023-01-13T16:42:23.194Z,100.00
2023-01-13T16:45:26.718Z,100.00
2023-01-13T16:48:29.614Z,100.00
2023-01-13T16:51:33.379Z,100.00
2023-01-13T16:54:36.313Z,100.00
2023-01-13T16:57:38.980Z,100.00
2023-01-13T17:00:41.855Z,100.00
2023-01-13T17:03:44.569Z,100.00
2023-01-13T17:06:58.075Z,100.00
2023-01-13T17:10:01.203Z,100.00
2023-01-13T17:13:14.740Z,100.00
2023-01-13T17:16:21.609Z,100.00
2023-01-13T17:19:25.651Z,100.00
2023-01-13T17:22:28.296Z,100.00
2023-01-13T17:25:31.058Z,100.00
2023-01-13T17:28:33.854Z,100.00
2023-01-13T17:31:36.702Z,100.00
2023-01-13T17:34:40.286Z,100.00
2023-01-13T17:37:43.130Z,100.00
2023-01-13T17:40:45.942Z,100.00
2023-01-13T17:43:48.821Z,100.00
2023-01-13T17:46:51.569Z,100.00
2023-01-13T17:49:54.728Z,100.00
2023-01-13T17:52:57.343Z,100.00
2023-01-13T17:56:00.102Z,100.00
2023-01-13T17:59:02.690Z,100.00
2023-01-13T18:02:05.676Z,100.00
2023-01-13T18:05:09.049Z,100.00
2023-01-13T18:08:11.521Z,100.00
2023-01-13T18:11:18.774Z,100.00
2023-01-13T18:14:22.835Z,100.00
2023-01-13T18:17:25.670Z,100.00
2023-01-13T18:20:48.842Z,100.00
2023-01-13T18:24:11.650Z,100.00
2023-01-13T18:27:19.224Z,100.00
2023-01-13T18:30:26.963Z,100.00
2023-01-13T18:33:29.576Z,100.00
2023-01-13T18:36:32.685Z,100.00
2023-01-13T18:39:37.466Z,100.00
2023-01-13T18:42:54.286Z,100.00
2023-01-13T18:45:57.052Z,100.00
2023-01-13T18:48:59.919Z,100.00
2023-01-13T18:52:02.855Z,100.00
2023-01-13T18:55:05.937Z,100.00
2023-01-13T18:58:08.523Z,100.00
2023-01-13T19:01:11.615Z,100.00
2023-01-13T19:04:15.969Z,100.00
2023-01-13T19:07:23.271Z,100.00
2023-01-13T19:10:31.789Z,100.00
2023-01-13T19:13:36.054Z,100.00
2023-01-13T19:16:38.887Z,100.00
2023-01-13T19:19:44.030Z,100.00
2023-01-13T19:22:54.061Z,100.00
2023-01-13T19:26:01.246Z,100.00
2023-01-13T19:29:04.047Z,100.00
2023-01-13T19:32:07.842Z,100.00
2023-01-13T19:35:13.114Z,100.00
2023-01-13T19:38:16.135Z,100.00
2023-01-13T19:41:37.372Z,100.00
2023-01-13T19:44:59.054Z,100.00
2023-01-13T19:48:02.534Z,100.00
2023-01-13T19:51:06.240Z,100.00
2023-01-13T19:54:09.323Z,100.00
2023-01-13T19:57:12.583Z,100.00
2023-01-13T20:00:20.490Z,100.00
2023-01-13T20:03:26.072Z,100.00
2023-01-13T20:06:32.734Z,100.00
2023-01-13T20:09:35.854Z,100.00
2023-01-13T20:12:39.014Z,100.00
2023-01-13T20:15:42.517Z,100.00
2023-01-13T20:18:49.812Z,100.00
2023-01-13T20:21:53.439Z,100.00
2023-01-13T20:24:56.744Z,100.00
2023-01-13T20:28:02.045Z,100.00
2023-01-13T20:31:11.547Z,100.00
2023-01-13T20:34:15.455Z,100.00
2023-01-13T20:37:18.190Z,100.00
2023-01-13T20:40:22.332Z,100.00
2023-01-13T20:43:24.865Z,100.00
2023-01-13T20:46:28.125Z,100.00
2023-01-13T20:49:31.050Z,100.00
2023-01-13T20:52:34.071Z,100.00
2023-01-13T20:55:39.720Z,100.00
2023-01-13T20:58:43.997Z,100.00
2023-01-13T21:01:46.761Z,100.00
2023-01-13T21:04:49.853Z,100.00
2023-01-13T21:07:52.362Z,100.00
2023-01-13T21:11:04.590Z,100.00
2023-01-13T21:14:34.298Z,100.00
2023-01-13T21:17:56.024Z,100.00
2023-01-13T21:21:11.745Z,100.00
2023-01-13T21:24:14.734Z,100.00
2023-01-13T21:27:17.285Z,100.00
2023-01-13T21:30:20.865Z,100.00
2023-01-13T21:33:23.354Z,100.00
2023-01-13T21:36:27.565Z,100.00
2023-01-13T21:39:30.148Z,100.00
2023-01-13T21:42:51.793Z,100.00
2023-01-13T21:46:12.746Z,100.00
2023-01-13T21:49:15.794Z,100.00
2023-01-13T21:52:18.547Z,100.00
2023-01-13T21:55:29.487Z,100.00
2023-01-13T21:58:32.096Z,100.00
2023-01-13T22:01:35.108Z,100.00
2023-01-13T22:04:39.693Z,100.00
2023-01-13T22:07:42.378Z,100.00
2023-01-13T22:11:00.100Z,100.00
2023-01-13T22:14:06.551Z,100.00
2023-01-13T22:17:09.370Z,100.00
2023-01-13T22:20:13.439Z,100.00
2023-01-13T22:23:17.168Z,100.00
2023-01-13T22:26:19.762Z,100.00
2023-01-13T22:29:22.509Z,100.00
2023-01-13T22:32:25.097Z,100.00
2023-01-13T22:35:27.949Z,100.00
2023-01-13T22:38:31.038Z,100.00
2023-01-13T22:41:34.092Z,100.00
2023-01-13T22:44:36.847Z,100.00
2023-01-13T22:47:39.788Z,100.00
2023-01-13T22:50:42.550Z,100.00
2023-01-13T22:53:45.435Z,100.00
2023-01-13T22:56:47.953Z,100.00
2023-01-13T22:59:50.878Z,100.00
2023-01-13T23:02:53.391Z,100.00
2023-01-13T23:05:57.130Z,100.00
2023-01-13T23:09:00.414Z,100.00
2023-01-13T23:12:03.735Z,100.00
2023-01-13T23:15:06.531Z,100.00
2023-01-13T23:18:09.327Z,100.00
2023-01-13T23:21:14.963Z,100.00
2023-01-13T23:24:18.095Z,100.00
2023-01-13T23:27:20.788Z,100.00
2023-01-13T23:30:24.097Z,100.00
2023-01-13T23:33:27.030Z,100.00
2023-01-13T23:36:30.132Z,100.00
2023-01-13T23:39:34.481Z,100.00
2023-01-13T23:42:37.312Z,100.00
2023-01-13T23:45:40.109Z,100.00
2023-01-13T23:48:43.007Z,100.00
2023-01-13T23:51:45.605Z,100.00
2023-01-13T23:54:48.417Z,100.00
2023-01-13T23:57:50.963Z,100.00
